< Typhoon 201813 2018 Season Typhoon 201815 >
Typhoon 201814 (YAGI)
General InformationTrack Information on Google MapsDetailed Wind InformationForecast History on Google MapsAccess Analytics MapList of All Images || NewsDisaster Info.WeblogTrackbackTyphoon FrontTwiphoonTyphoon Now!Typhoon ImaginationJMA Disaster Info. XMLResourceGoogle EarthGE AnimationAtom FeedGeoJSON
Detalied Best Track (Time Zone = UTC)
Year Month Day Hour Lat. Long. Pressure (hPa) Wind (kt) Class Image Chart
2018 8 6 00 18.2 134.1 1000 0 2 Image Chart
2018 8 6 06 18.5 134.0 1000 0 2 Image Chart
2018 8 6 12 18.7 133.9 998 0 2 Image Chart
2018 8 6 18 19.0 133.6 998 0 2 Image Chart
2018 8 7 00 19.1 133.3 998 0 2 Image Chart
2018 8 7 06 19.1 132.8 996 0 2 Image Chart
2018 8 7 12 19.1 132.6 996 0 2 Image Chart
2018 8 7 18 19.1 132.5 996 0 2 Image Chart
2018 8 8 00 19.2 132.5 994 35 3 Image Chart
2018 8 8 06 19.5 133.4 994 35 3 Image Chart
2018 8 8 12 19.9 134.0 994 35 3 Image Chart
2018 8 8 18 20.6 134.0 994 35 3 Image Chart
2018 8 9 00 21.0 133.7 994 35 3 Image Chart
2018 8 9 06 20.9 133.4 994 35 3 Image Chart
2018 8 9 12 20.9 133.4 994 35 3 Image Chart
2018 8 9 18 22.2 133.0 994 35 3 Image Chart
2018 8 10 00 22.8 132.3 994 35 3 Image Chart
2018 8 10 06 22.7 131.9 994 35 3 Image Chart
2018 8 10 12 23.3 132.0 994 35 3 Image Chart
2018 8 10 18 24.2 130.9 994 35 3 Image Chart
2018 8 11 00 25.0 129.6 994 35 3 Image Chart
2018 8 11 06 25.0 128.0 992 35 3 Image Chart
2018 8 11 12 25.0 126.8 990 40 3 Image Chart
2018 8 11 18 25.2 125.5 990 40 3 Image Chart
2018 8 12 00 25.6 124.8 990 40 3 Image Chart
2018 8 12 06 26.5 123.6 990 40 3 Image Chart
2018 8 12 12 27.6 122.3 990 40 3 Image Chart
2018 8 12 18 29.0 120.7 990 35 3 Image Chart
2018 8 13 00 30.7 118.9 994 0 2 Image Chart
2018 8 13 06 31.9 117.7 994 0 2 Image Chart
2018 8 13 12 32.9 117.0 996 0 2 Image Chart
2018 8 13 18 34.2 116.1 998 0 2 Image Chart
2018 8 14 00 35.5 116.4 1000 0 2 Image Chart
2018 8 14 06 36.9 117.0 1000 0 2 Image Chart
2018 8 14 12 37.7 117.6 1000 0 2 Image Chart
2018 8 14 18 37.9 118.9 1002 0 2 Image Chart
2018 8 15 00 37.9 119.5 1002 0 2 Image Chart
2018 8 15 06 37.9 119.7 1000 0 6 Image Chart
2018 8 15 12 37.2 119.3 1000 0 6 Image Chart
2018 8 15 18 36.6 117.9 1004 0 6 Image Chart
2018 8 16 00 35.3 116.1 1006 0 6 Image Chart
Japan Meteorological Agency Best Track Data | Correction Date : 2018-10-03
< Typhoon 201813 2018 Season Typhoon 201815 >

Help